Pitts, Georgia
Current Conditions -  °F | °C
As of 11:35 PM on Wednesday 26 Nov 2014 (Local Time) from KCKF Reporting Station
Clear Clear  
Wind Chill:   Ceiling: Unl
Heat Index:   Visibility: 10mi
Dew Point:   Wind: 6mph
Humidity: 63%   Direction: 220°SW
Pressure: 30.17"   Gusts: NA
Location:  31.94°N, 83.54°W
Report Text: KCKF 270435Z AUTO 22005KT 10SM CLR 08/02 A3017 RMK AO2 T00830016
Loading
Personal Weather Stations






























Interactive Weather Map New forecast layout! Learn more

10-Day Weather Forecast

Advertisements
Track Severe Weather on mobile